Tiempo atmosférico en la estación meteorológica de A Coruña Aeropuerto, A Coruña (98 m.)



Fecha
DESCASC
Temp. máxima en grados centígrados (hora)
DESCASC
Temp. mínima en grados centígrados (hora)
DESCASC
Temp. media en grados centígrados
DESCASC
Racha de viento máxima en m/sg (hora)
DESCASC
Velocidad máxima media en intervalos de 10 minutos(hora)
DESCASC
Precipitaciones diarias en mm
DESCASC
Precipitaciones de 00:00 a 06:00 en mm
DESCASC
Precipitaciones de 06:00 a 12:00 en mm
DESCASC
Precipitaciones de 12:00 a 18:00 en mm
DESCASC
Precipitaciones de 18:00 a 24:00 en mm
DESCASC
08-12-2019 14.4 (11:40) 8.4 (22:50) 11.4 10.28 (07:00) 7.5 (07:00) 10.8 0.3 10.5 0 0
07-12-2019 15.7 (14:20) 8.6 (00:00) 12.2 11.67 (22:50) 8.33 (22:20) 0.4 0.1 0.3 0 0
06-12-2019 13.3 (16:10) 5.8 (06:30) 9.6 6.67 (06:50) 4.17 (10:50) 0 0 0 0 0
05-12-2019 12.6 (12:00) 3.7 (00:00) 8.2 8.89 (10:50) 4.72 (13:00) 0 0 0 0 0
04-12-2019 11 (16:40) 0 (00:00) 5.5 7.22 (07:10) 4.72 (09:30) 0 0 0 0 0
03-12-2019 12.9 (15:40) 1.6 (00:00) 7.2 7.78 (13:30) 4.72 (14:20) 0 0 0 0 0
02-12-2019 11.7 (14:20) 7.2 (00:00) 9.4 12.78 (08:20) 8.06 (14:10) 0.2 0.2 0 0 0
01-12-2019 13.3 (13:00) 8.6 (00:00) 11 14.44 (15:30) 8.89 (22:10) 1.6 0.5 0.8 0.3 0
30-11-2019 16.5 (02:00) 9.9 (00:00) 13.2 12.78 (04:40) 7.78 (04:40) 3.3 2.4 0.2 0 0.7
29-11-2019 16.3 (16:00) 9.1 (00:00) 12.7 15.28 (21:00) 8.89 (21:00) 0.7 0 0 0 0.7
28-11-2019 15.4 (18:10) 9.1 (00:00) 12.3 9.17 (19:30) 5.28 (19:40) 11.4 0 0 11.4 0
27-11-2019 14.7 (15:40) 10.9 (00:00) 12.8 12.5 (02:10) 8.06 (00:10) 2.5 1.6 0.2 0.7 0
26-11-2019 17.5 (12:30) 11.8 (00:00) 14.7 22.22 (13:30) 13.61 (13:20) 6.9 0 0.2 5.9 0.8
25-11-2019 15.3 (21:50) 12.2 (00:00) 13.8 16.94 (20:40) 11.11 (20:40) 2.1 2.1 0 0 0
24-11-2019 15.7 (19:40) 7.6 (00:00) 11.6 17.5 (14:40) 11.67 (14:30) 2 0 0 1.2 0.8
23-11-2019 13.7 (13:10) 8.6 (00:00) 11.2 25.83 (00:10) 11.39 (00:10) 3.3 0.7 1.6 0 1
22-11-2019 15 (10:00) 9.5 (00:00) 12.3 24.72 (20:20) 15.28 (21:40) 20.9 1.6 7.6 3.2 8.5
21-11-2019 13.8 (14:50) 6.3 (00:00) 10.1 11.39 (23:20) 7.22 (23:30) 4.7 0 4.5 0.2 0
20-11-2019 11.7 (13:20) 6.2 (00:00) 8.9 11.67 (13:00) 7.78 (13:10) 1.5 0 0.2 0 1.3
19-11-2019 -- (--) -- (--) -- 12.78 (11:40) 7.78 (11:40) 1.2 0.1 0.7 0.4 0
18-11-2019 -- (--) -- (--) -- 6.11 (02:20) 3.06 (21:40) 3.8 3.5 0.3 0 0
17-11-2019 -- (--) -- (--) -- 14.44 (05:10) 8.89 (14:50) 7.4 2.6 3.7 0.9 0.2
16-11-2019 11.4 (14:40) 6 (00:00) 8.7 12.78 (00:50) 7.22 (01:10) 2.7 1.1 1 0.6 0
15-11-2019 10.8 (12:50) 5.6 (00:00) 8.2 20.56 (02:50) 11.39 (08:20) 13.5 2.3 2.7 4.4 4.1
14-11-2019 12.3 (13:50) 6.1 (00:00) 9.2 28.89 (12:10) 16.11 (13:30) 9.7 1.4 6.4 1.4 0.5
13-11-2019 13.7 (00:00) 8.9 (00:00) 11.3 18.61 (23:50) 10.28 (23:30) 7.9 0.8 0.1 0.1 6.9
12-11-2019 15.4 (22:00) 8.2 (00:00) 11.8 16.94 (18:40) 9.17 (12:50) 27.1 0.3 1.6 14.5 10.7
11-11-2019 14.5 (05:00) 8.3 (23:10) 11.4 14.44 (07:10) 8.33 (07:20) 2.2 2.1 0.1 0 0
10-11-2019 12.2 (01:10) 8.9 (00:00) 10.5 17.5 (05:20) 9.17 (11:40) 12.1 1 2.5 6.6 2

Gráficas

Temp. máximas Temp. mínimas Temp. medias Precipitaciones Rachas de viento máximas Velocidades máximas media en intervalos de 10 minutos

Datos horarios

Fecha y hora oficial Temperatura (ºC) Velocidad del viento (km/h) Dirección del viento Racha (km/h) Dirección de racha Precipitación (mm) Presión (hPa) Tendencia (hPa) Humedad (%)
2019-12-09 23:00:00 5.8 8 Sur 13 Sur 0 1020.4 0 97
2019-12-09 22:00:00 6.8 9 Sur 11 Sur 0 1020.3 0.2 97
2019-12-09 21:00:00 7.7 9 Sur 15 Sur 0 1020.5 0.8 96
2019-12-09 20:00:00 8.8 6 Sudoeste 8 Sudoeste 0 1020.4 0.4 91
2019-12-09 19:00:00 10.2 0 Calma 13 Sudeste 0 1020.1 0.3 87
2019-12-09 18:00:00 11.5 7 Sur 17 Sur 0 1019.7 -0.4 83
2019-12-09 17:00:00 13.1 0 Calma 8 Oeste 0 1020 -0.3 76
2019-12-09 16:00:00 12.8 3 Noroeste 13 Oeste 0 1019.8 -1 76
2019-12-09 15:00:00 13.1 8 Noroeste 17 Noroeste 0 1020.1 -1.4 73
2019-12-09 14:00:00 13.5 5 Oeste 11 Noroeste 0 1020.3 -0.7 73
2019-12-09 13:00:00 12.4 6 Sur 13 Sur 0 1020.8 0.6 85
2019-12-09 12:00:00 11.5 4 Sudeste 17 Sudeste 0 1021.5 1.6 86
2019-12-09 11:00:00 10.5 8 Sudeste 11 Sur 0 1021 1.4 89
2019-12-09 10:00:00 9.7 8 Sudoeste 13 Sur 0 1020.2 1.1 90
2019-12-09 09:00:00 9.7 6 Sur 9 Sur 0 1019.9 1.3 90
2019-12-09 08:00:00 9.6 6 Sur 18 Oeste 0 1019.6 0.7 89
2019-12-09 07:00:00 10.5 6 Oeste 15 Oeste 0 1019.1 0.3 83
2019-12-09 06:00:00 9.5 10 Sudoeste 21 Sudoeste 0 1018.6 0.3 88
2019-12-09 05:00:00 10.6 6 Oeste 18 Oeste 0 1018.9 0.5 84
2019-12-09 04:00:00 9.2 12 Sudoeste 17 Sudoeste 0 1018.8 0.3 89
2019-12-09 03:00:00 8.5 10 Sudoeste 15 Sudoeste 0 1018.3 0.3 91
2019-12-09 02:00:00 8.4 10 Sudoeste 15 Sur 0 1018.4 0.6 92
2019-12-09 01:00:00 8.3 12 Sudoeste 17 Sudoeste 0 1018.5 1 89
2019-12-09 00:00:00 8.8 8 Sudoeste 15 Sudoeste 0 1018 1.1 93
2019-12-08 23:00:00 8.8 13 Sudoeste 15 Sudoeste 0 1017.8 1.5 94
2019-12-08 22:00:00 10.3 7 Oeste 11 Oeste 0 1017.5 1.7 87
2019-12-08 21:00:00 9.4 6 Sudoeste 8 Sudoeste 0 1016.9 1.4 92
2019-12-08 20:00:00 10.4 8 Noroeste 15 Oeste 0 1016.3 1.5 85
2019-12-08 19:00:00 9.9 3 Oeste 11 Oeste 0 1015.8 1.4 88
2019-12-08 18:00:00 11.1 4 Oeste 8 Oeste 0 1015.5 1.3 84
2019-12-08 17:00:00 12.5 5 Oeste 15 Noroeste 0 1014.8 1.1 78
2019-12-08 16:00:00 12.9 10 Norte 21 Norte 0 1014.4 0.8 75
2019-12-08 15:00:00 12.9 15 Norte 24 Noroeste 0 1014.2 1.2 81
2019-12-08 14:00:00 12.8 13 Norte 30 Norte 0 1013.7 1.5 86
2019-12-08 13:00:00 12.6 10 Norte 33 Norte 0 1013.6 2.1 97
2019-12-08 12:00:00 14.2 13 Noroeste 33 Noroeste 0.4 1013 2.4 96
2019-12-08 11:00:00 14.2 13 Oeste 28 Noroeste 0.2 1012.2 2 95
2019-12-08 10:00:00 13.8 10 Oeste 21 Sur 0.3 1011.5 2.2 97
2019-12-08 09:00:00 13.2 12 Sur 15 Oeste 8.6 1010.6 1 96
2019-12-08 08:00:00 13.9 7 Noroeste 33 Sudoeste 1 1010.2 0.2 89
2019-12-08 07:00:00 13.6 27 Sudoeste 37 Sudoeste 0 1009.3 -1.2 90
2019-12-08 06:00:00 13.4 16 Sur 30 Sudoeste 0.3 1009.6 -0.6 91
2019-12-08 05:00:00 13.9 22 Sudoeste 33 Sur 0 1010 -0.6 87
2019-12-08 04:00:00 13.8 18 Sur 26 Sudoeste 0 1010.5 -0.5 87
2019-12-08 03:00:00 13.8 16 Sur 28 Sudoeste 0 1010.2 -0.8 85
2019-12-08 02:00:00 13.8 19 Sur 35 Sur 0 1010.6 -0.3 85
2019-12-08 01:00:00 13.7 15 Sudoeste 32 Sudoeste 0 1011 0.6 86
2019-12-08 00:00:00 13.8 14 Sudoeste 39 Sudoeste 0 1011 0.4 85
2019-12-07 23:00:00 13.9 26 Sudoeste 42 Sudoeste 0 1010.9 0.4 85
2019-12-07 22:00:00 13.8 19 Sudoeste 39 Sur 0 1010.4 -0.1 84
2019-12-07 21:00:00 13.6 13 Sudoeste 33 Sudoeste 0 1010.6 0.2 85
2019-12-07 20:00:00 13.5 6 Sur 24 Sudoeste 0 1010.5 0.1 86
2019-12-07 19:00:00 12.8 8 Sur 17 Sudoeste 0 1010.5 0.6 89
2019-12-07 18:00:00 13.4 17 Sur 30 Sur 0 1010.4 0.2 85
2019-12-07 17:00:00 13.9 21 Sudoeste 35 Sudoeste 0 1010.4 -0.1 85
2019-12-07 16:00:00 14.1 19 Sudoeste 28 Sudoeste 0 1009.9 -1.3 83
2019-12-07 15:00:00 14.1 8 Sudeste 22 Sudoeste 0 1010.2 -1.6 83
2019-12-07 14:00:00 15.1 11 Sur 24 Sudoeste 0 1010.5 -1.3 78
2019-12-07 13:00:00 14.5 12 Sur 18 Sur 0 1011.2 -0.3 81
2019-12-07 12:00:00 11.9 10 Sur 22 Sudeste 0 1011.8 0.8 91
2019-12-07 11:00:00 10.8 10 Sudeste 18 Sur 0 1011.8 0.8 95
2019-12-07 10:00:00 10.4 10 Sudeste 15 Sur 0.1 1011.5 0.9 94
2019-12-07 09:00:00 10.1 12 Sur 17 Sur 0.1 1011 0.5 97
2019-12-07 08:00:00 10.4 9 Sur 26 Sudeste 0.1 1011 0.3 93
2019-12-07 07:00:00 10.3 12 Sur 30 Sudeste 0 1010.6 -0.6 95
2019-12-07 06:00:00 10 11 Sur 17 Sur 0 1010.5 -0.5 94
2019-12-07 05:00:00 9.7 9 Sudeste 13 Sudeste 0 1010.7 -0.6 95
2019-12-07 04:00:00 9.7 9 Sur 15 Sur 0 1011.2 -0.2 94
2019-12-07 03:00:00 9.2 6 Sur 13 Sur 0 1011 -0.6 96
2019-12-07 02:00:00 9.2 5 Sudeste 9 Sudeste 0.1 1011.3 -0.4 95
2019-12-07 01:00:00 8.8 9 Sur 24 Sur 0 1011.4 -0.1 95
2019-12-07 00:00:00 8.6 11 Sur 17 Sur 0 1011.6 0.1 95
2019-12-06 23:00:00 8.8 8 Sur 18 Sur 0 1011.7 0.3 96
2019-12-06 22:00:00 8.6 13 Sur 17 Sur 0 1011.5 0.7 96
2019-12-06 21:00:00 9 12 Sur 15 Sur 0 1011.5 1.2 94
2019-12-06 20:00:00 9.8 4 Sur 8 Sudoeste 0 1011.4 0.6 93
2019-12-06 19:00:00 10.5 5 Oeste 8 Oeste 0 1010.8 0.5 91
2019-12-06 18:00:00 12.3 0 Calma 15 Este 0 1010.3 -0.5 84
2019-12-06 17:00:00 12.7 4 Nordeste 9 Sudeste 0 1010.8 -0.4 82
2019-12-06 16:00:00 12.8 0 Calma 8 Norte 0 1010.3 -1.6 83
2019-12-06 15:00:00 12.7 0 Calma 8 Sur 0 1010.8 -1.1 82
2019-12-06 14:00:00 11.9 5 Sudeste 13 Sur 0 1011.2 -0.3 83
2019-12-06 13:00:00 11.3 2 Sudeste 13 Sudeste 0 1011.9 0 84
2019-12-06 12:00:00 9 5 Sur 13 Sur 0 1011.9 0.5 91
2019-12-06 11:00:00 7.2 13 Sur 24 Sur 0 1011.5 0.8 95
2019-12-06 10:00:00 6.4 9 Sur 11 Sur 0 1011.9 1.7 97
2019-12-06 09:00:00 6 6 Sur 9 Sur 0 1011.4 1 97
2019-12-06 08:00:00 6.2 6 Sur 13 Sur 0 1010.7 0 97
2019-12-06 07:00:00 6 5 Sur 24 Sudeste 0 1010.2 -0.3 96
2019-12-06 06:00:00 6.3 10 Sur 13 Sur 0 1010.4 -0.6 96
2019-12-06 05:00:00 6.2 8 Sur 11 Sur 0 1010.7 -0.6 97
2019-12-06 04:00:00 6.2 5 Sudoeste 17 Sur 0 1010.5 -0.9 97
2019-12-06 03:00:00 6.3 11 Sur 13 Sur 0 1011 -0.3 96
2019-12-06 02:00:00 6.5 4 Sur 15 Sur 0 1011.3 0 96
2019-12-06 01:00:00 7 5 Sur 13 Sur 0 1011.4 0 96
2019-12-06 00:00:00 7.1 9 Sur 13 Sur 0 1011.3 0.2 95
2019-12-05 23:00:00 8.3 4 Oeste 18 Sudeste 0 1011.3 0.4 94
2019-12-05 22:00:00 8.4 5 Sudoeste 11 Norte 0 1011.4 0.8 93
2019-12-05 21:00:00 10.1 4 Norte 11 Nordeste 0 1011.1 0.5 89
2019-12-05 20:00:00 10.7 6 Norte 13 Norte 0 1010.9 0.7 87
2019-12-05 19:00:00 10.7 7 Nordeste 18 Norte 0 1010.6 0.3 86
2019-12-05 18:00:00 11.7 10 Norte 22 Norte 0 1010.6 0 83
2019-12-05 17:00:00 11.8 10 Norte 24 Norte 0 1010.2 -0.9 82
2019-12-05 16:00:00 11.8 14 Norte 30 Norte 0 1010.3 -1 82
2019-12-05 15:00:00 12 14 Norte 26 Norte 0 1010.6 -0.9 81
2019-12-05 14:00:00 12.2 12 Norte 22 Norte 0 1011.1 -0.3 80
2019-12-05 13:00:00 12.2 17 Nordeste 28 Nordeste 0 1011.3 0.9 82
2019-12-05 12:00:00 12.5 15 Norte 28 Norte 0 1011.5 1.8 78
2019-12-05 11:00:00 11.5 15 Norte 32 Nordeste 0 1011.4 2 78
2019-12-05 10:00:00 11.2 13 Norte 24 Norte 0 1010.4 1.4 77
2019-12-05 09:00:00 10.6 12 Norte 22 Nordeste 0 1009.7 0.9 79
2019-12-05 08:00:00 10.1 12 Nordeste 22 Norte 0 1009.4 0.8 84
2019-12-05 07:00:00 9.2 8 Norte 15 Norte 0 1009 0.3 86
2019-12-05 06:00:00 8.2 10 Norte 15 Norte 0 1008.8 0.6 87
2019-12-05 05:00:00 4.7 0 Calma 9 Sur 0 1008.6 0.4 92
2019-12-05 04:00:00 4.3 7 Sur 13 Sur 0 1008.7 0.4 92
2019-12-05 03:00:00 4.4 4 Sur 11 Sur 0 1008.2 0.5 92
2019-12-05 02:00:00 4 8 Sur 11 Sur 0 1008.2 0.6 92
2019-12-05 01:00:00 4.9 0 Calma 9 Norte 0 1008.3 1 90
2019-12-05 00:00:00 4.6 2 Noroeste 11 Este 0 1007.7 1.2 89
2019-12-04 23:00:00 8 4 Noroeste 15 Este 0 1007.6 2 79
2019-12-04 22:00:00 8.2 8 Nordeste 18 Norte 0 1007.3 2.6 77
2019-12-04 21:00:00 7.4 8 Nordeste 15 Nordeste 0 1006.5 2.5 71
2019-12-04 20:00:00 8 6 Norte 13 Norte 0 1005.6 2 71
2019-12-04 19:00:00 8.6 7 Norte 11 Norte 0 1004.7 1.5 71
2019-12-04 18:00:00 9.4 5 Norte 18 Este 0 1004 1 68
2019-12-04 17:00:00 10.9 8 Norte 21 Norte 0 1003.6 0.4 66
2019-12-04 16:00:00 10.7 12 Norte 22 Norte 0 1003.2 -0.1 69
2019-12-04 15:00:00 10.5 11 Norte 22 Norte 0 1003 -0.4 66
2019-12-04 14:00:00 10.1 8 Norte 13 Norte 0 1003.2 0.1 58
2019-12-04 13:00:00 9.2 2 Nordeste 5 Nordeste 0 1003.3 0.4 60
2019-12-04 12:00:00 7.1 0 Calma 11 Sur 0 1003.4 1 69
2019-12-04 11:00:00 4.7 4 Sur 9 Sur 0 1003.1 1.4 78
2019-12-04 10:00:00 1.5 6 Sur 21 Sur 0 1002.9 1.7 89
2019-12-04 09:00:00 1.1 8 Sur 21 Sur 0 1002.4 1.4 88
2019-12-04 08:00:00 0.9 13 Sur 26 Sudeste 0 1001.7 0.8 91
2019-12-04 07:00:00 1.2 11 Sur 22 Sudeste 0 1001.2 0.1 87
2019-12-04 06:00:00 0.9 8 Sur 15 Sur 0 1001 -0.2 91
2019-12-04 05:00:00 1.7 4 Noroeste 13 Sur 0 1000.9 -1 91
2019-12-04 04:00:00 1.5 10 Sudeste 18 Sudeste 0 1001.1 -1.2 92
2019-12-04 03:00:00 0.1 12 Sur 17 Sur 0 1001.2 -1.3 96
2019-12-04 02:00:00 1 12 Sur 13 Sur 0 1001.9 -1.1 95
2019-12-04 01:00:00 1.6 8 Sur 15 Sur 0 1002.3 -0.5 94
2019-12-04 00:00:00 1.7 13 Sur 18 Sur 0 1002.5 -0.4 95
2019-12-03 23:00:00 2.5 10 Sur 15 Sudeste 0 1003 0.1 94
2019-12-03 22:00:00 3.6 12 Sur 13 Sur 0 1002.8 -0.1 91
2019-12-03 21:00:00 5.3 0 Calma 15 Sudeste 0 1002.9 -0.2 82
2019-12-03 20:00:00 6.1 0 Calma 13 Sur 0 1002.9 -0.5 78
2019-12-03 19:00:00 7.5 10 Sur 17 Oeste 0 1002.9 -0.7 69
2019-12-03 18:00:00 10.1 9 Sur 17 Sudeste 0 1003.1 -1.1 59
2019-12-03 17:00:00 11.9 10 Sudeste 21 Sudeste 0 1003.4 -1.4 52
2019-12-03 16:00:00 12.8 8 Sudeste 18 Sudeste 0 1003.6 -2.4 50
2019-12-03 15:00:00 12.6 11 Sudeste 24 Sur 0 1004.2 -3.1 49
2019-12-03 14:00:00 12.2 16 Sudeste 28 Este 0 1004.8 -2.8 50
2019-12-03 13:00:00 11.6 9 Sudeste 18 Este 0 1006 -1.7 54
2019-12-03 12:00:00 10.3 9 Sur 13 Sur 0 1007.3 -0.8 57
2019-12-03 11:00:00 9.1 5 Sudeste 18 Sudoeste 0 1007.6 -0.8 61
2019-12-03 10:00:00 7.5 4 Nordeste 21 Sudeste 0 1007.7 -0.6 63
2019-12-03 09:00:00 5.8 5 Este 11 Nordeste 0 1008.1 -0.4 70
2019-12-03 08:00:00 6.1 0 Calma 9 Este 0 1008.4 -0.3 70
2019-12-03 07:00:00 6.9 4 Nordeste 15 Norte 0 1008.3 -1.3 65
2019-12-03 06:00:00 7.5 6 Nordeste 13 Este 0 1008.5 -1.8 63
2019-12-03 05:00:00 7.4 2 Nordeste 13 Este 0 1008.7 -2 67
2019-12-03 04:00:00 6.6 4 Norte 22 Este 0 1009.6 -1.4 72
2019-12-03 03:00:00 7.2 8 Este 18 Este 0 1010.3 -1.1 69
2019-12-03 02:00:00 7.4 3 Norte 15 Nordeste 0 1010.7 -1 69
2019-12-03 01:00:00 7.1 6 Norte 15 Noroeste 0 1011 -1 70
2019-12-03 00:00:00 7.3 10 Nordeste 21 Nordeste 0 1011.4 -0.5 69
2019-12-02 23:00:00 7.7 10 Este 22 Este 0 1011.7 0.2 68
2019-12-02 22:00:00 8.3 11 Este 24 Este 0 1012 0.6 66
2019-12-02 21:00:00 8.5 8 Este 26 Este 0 1011.9 0.8 69
2019-12-02 20:00:00 8.7 14 Este 26 Nordeste 0 1011.5 0.4 69
2019-12-02 19:00:00 9.3 15 Nordeste 35 Nordeste 0 1011.4 0.6 67
2019-12-02 18:00:00 10 10 Nordeste 24 Nordeste 0 1011.1 0.3 66
2019-12-02 17:00:00 10.6 11 Nordeste 37 Nordeste 0 1011.1 -0.6 66
2019-12-02 16:00:00 11.4 19 Nordeste 46 Nordeste 0 1010.8 -1.7 57
2019-12-02 15:00:00 11.2 24 Nordeste 46 Este 0 1010.8 -2.2 64
2019-12-02 14:00:00 11.4 26 Nordeste 45 Nordeste 0 1011.7 -0.9 63
2019-12-02 13:00:00 10.4 19 Nordeste 41 Nordeste 0 1012.5 0.6 68
2019-12-02 12:00:00 10.4 19 Nordeste 41 Nordeste 0 1013 1.7 70
2019-12-02 11:00:00 10.8 22 Nordeste 39 Este 0 1012.6 1.8 71
2019-12-02 10:00:00 10 20 Nordeste 39 Nordeste 0 1011.9 2.2 76
2019-12-02 09:00:00 9.8 10 Norte 46 Nordeste 0 1011.3 1.8 76
2019-12-02 08:00:00 10 22 Nordeste 41 Nordeste 0 1010.8 1.5 77
2019-12-02 07:00:00 9.9 22 Nordeste 37 Nordeste 0 1009.7 0.2 81
2019-12-02 06:00:00 9.8 18 Nordeste 32 Nordeste 0 1009.5 0.1 82
2019-12-02 05:00:00 9 10 Norte 22 Nordeste 0.1 1009.3 0.1 89
2019-12-02 04:00:00 9 11 Norte 39 Nordeste 0.1 1009.5 0.2 87
2019-12-02 03:00:00 9.6 13 Nordeste 35 Nordeste 0 1009.4 0.5 76
2019-12-02 02:00:00 10.1 24 Nordeste 41 Nordeste 0 1009.2 0.2 68
2019-12-02 01:00:00 9.9 21 Nordeste 37 Norte 0 1009.3 0.8 63
2019-12-02 00:00:00 9.6 14 Nordeste 45 Nordeste 0 1008.9 0.6 74
2019-12-01 23:00:00 10.1 17 Nordeste 52 Norte 0 1009 0.9 76
2019-12-01 22:00:00 10.8 24 Norte 46 Norte 0 1008.5 0.9 75
2019-12-01 21:00:00 10.9 18 Norte 41 Norte 0 1008.3 2.1 71
2019-12-01 20:00:00 11 23 Nordeste 42 Nordeste 0 1008.1 3 64
2019-12-01 19:00:00 10.5 18 Nordeste 35 Nordeste 0 1007.6 3.2 71
2019-12-01 18:00:00 10.6 19 Nordeste 42 Norte 0 1006.2 2.4 74
2019-12-01 17:00:00 11.2 17 Nordeste 41 Norte 0 1005.1 1.7 75
2019-12-01 16:00:00 11 19 Nordeste 52 Nordeste 0.1 1004.4 1.2 84
2019-12-01 15:00:00 12.3 9 Norte 30 Nordeste 0.2 1003.8 0.5 81
2019-12-01 14:00:00 12.6 22 Nordeste 33 Norte 0 1003.4 0.6 78
2019-12-01 13:00:00 13.1 15 Nordeste 30 Nordeste 0 1003.2 1.6 75
2019-12-01 12:00:00 11.9 17 Nordeste 30 Nordeste 0.2 1003.3 3.3 86
2019-12-01 11:00:00 10.6 9 Norte 21 Norte 0.1 1002.8 4.5 89
2019-12-01 10:00:00 9.7 11 Norte 17 Norte 0 1001.6 4.3 90
2019-12-01 09:00:00 8.7 2 Nordeste 9 Oeste 0 1000 4.6 96
2019-12-01 08:00:00 8.8 6 Noroeste 22 Norte 0.3 998.3 3.8 96
2019-12-01 07:00:00 9.5 13 Norte 22 Nordeste 0.2 997.3 3.6 92
2019-12-01 06:00:00 9.2 6 Nordeste 9 Este 0 995.4 2 88
2019-12-01 05:00:00 9.6 4 Sudeste 15 Sur 0 994.5 1 88
2019-12-01 04:00:00 9.8 13 Sur 24 Sudeste 0 993.7 -0.7 87
2019-12-01 03:00:00 9.7 10 Sudeste 24 Sur 0 993.4 -1.7 90
2019-12-01 02:00:00 9.8 15 Sur 26 Sur 0.1 993.5 -2.8 90
2019-12-01 01:00:00 10.2 17 Sur 33 Sur 0.4 994.4 -3.1 87
2019-12-01 00:00:00 10.1 17 Sur 32 Sur 0.2 995.1 -3.3 86
2019-11-30 23:00:00 10.5 15 Sur 30 Sur 0.5 996.3 -2.7 86
2019-11-30 22:00:00 10.8 14 Sur 35 Sur 0 997.5 -2.3 80
2019-11-30 21:00:00 11.2 23 Sudoeste 33 Sudoeste 0 998.4 -1.5 76
2019-11-30 20:00:00 11.4 19 Sur 32 Sudoeste 0 999 -1.2 77
2019-11-30 19:00:00 11.6 11 Sur 28 Sudoeste 0 999.8 -0.6 80
2019-11-30 18:00:00 12 15 Sudoeste 30 Sur 0 999.9 -0.8 76
2019-11-30 17:00:00 13.2 14 Sudoeste 37 Sudoeste 0 1000.2 -1.4 74
2019-11-30 16:00:00 15 23 Oeste 42 Oeste 0 1000.4 -1.4 59
2019-11-30 15:00:00 14.4 23 Oeste 37 Oeste 0 1000.7 -2 63
2019-11-30 14:00:00 13.7 23 Oeste 45 Oeste 0 1001.6 -1 67
2019-11-30 13:00:00 14.1 19 Sudoeste 37 Sudoeste 0 1001.8 -0.7 67
2019-11-30 12:00:00 13.7 16 Oeste 37 Oeste 0 1002.7 0.6 65
2019-11-30 11:00:00 13.7 15 Sudoeste 26 Sudoeste 0 1002.6 0.7 70
2019-11-30 10:00:00 11.9 12 Sur 22 Sudoeste 0 1002.5 0.8 76
2019-11-30 09:00:00 11.8 11 Sudoeste 30 Oeste 0 1002.1 0.8 75
2019-11-30 08:00:00 12.5 15 Oeste 32 Sudoeste 0.2 1001.9 0.8 69
2019-11-30 07:00:00 13.1 9 Oeste 37 Noroeste 0 1001.7 0.7 83
2019-11-30 06:00:00 13.6 20 Oeste 41 Oeste 0 1001.3 0.7 84
2019-11-30 05:00:00 13.3 20 Oeste 46 Oeste 1 1001.1 0.6 87
2019-11-30 04:00:00 15.9 13 Oeste 39 Sudoeste 0 1001 0.4 83
2019-11-30 03:00:00 15.8 16 Oeste 30 Oeste 1.4 1000.6 -0.4 88
2019-11-30 02:00:00 16.4 16 Sudoeste 35 Oeste 0 1000.5 -1.2 85
2019-11-30 01:00:00 15.9 21 Sur 35 Sudoeste 0 1000.6 -2 89
2019-11-30 00:00:00 15 16 Sur 37 Sur 0.7 1001 -2.3 91
2019-11-29 23:00:00 15.3 17 Sur 32 Sur 0 1001.7 -2.4 83
2019-11-29 22:00:00 14.9 20 Sur 48 Sur 0 1002.6 -2.5 83
2019-11-29 21:00:00 15.3 32 Sur 55 Sur 0 1003.3 -2.1 79
2019-11-29 20:00:00 14.5 4 Sur 18 Sur 0 1004.1 -1.2 81
2019-11-29 19:00:00 14.5 8 Este 22 Sudeste 0 1005.1 -0.2 79
2019-11-29 18:00:00 14.6 0 Calma 18 Sur 0 1005.4 -0.4 79
2019-11-29 17:00:00 15.3 9 Sur 21 Sur 0 1005.3 -1.1 73
2019-11-29 16:00:00 16.2 8 Sur 17 Sur 0 1005.3 -1.8 70
2019-11-29 15:00:00 15.7 10 Sudoeste 17 Sudoeste 0 1005.8 -1.9 72
2019-11-29 14:00:00 13.8 13 Sudoeste 26 Sudoeste 0 1006.4 -0.8 79
2019-11-29 13:00:00 13.9 17 Sur 33 Sur 0 1007.1 0.2 80
2019-11-29 12:00:00 13.8 14 Sur 22 Sur 0 1007.7 1.5 81
2019-11-29 11:00:00 13 13 Sudoeste 18 Sudoeste 0 1007.2 1.2 83
2019-11-29 10:00:00 10.9 10 Sur 22 Sur 0 1006.9 1.4 91
2019-11-29 09:00:00 10.1 11 Sur 18 Sur 0 1006.2 0.9 95
2019-11-29 08:00:00 9.7 12 Sur 15 Sur 0 1006 0.8 97
2019-11-29 07:00:00 9.4 10 Sur 26 Sur 0 1005.5 0.7 97
2019-11-29 06:00:00 9.9 12 Sur 15 Sur 0 1005.3 1.2 96
2019-11-29 05:00:00 11.4 5 Oeste 17 Sudoeste 0 1005.2 1.4 89
2019-11-29 04:00:00 10.9 12 Sudoeste 15 Sudoeste 0 1004.8 1 92
2019-11-29 03:00:00 11.2 8 Sudoeste 13 Sudoeste 0 1004.1 0.9 91
2019-11-29 02:00:00 11.5 8 Sudoeste 13 Sudoeste 0 1003.8 1.2 94
2019-11-29 01:00:00 11.3 10 Sur 11 Sur 0 1003.8 1.9 95
2019-11-29 00:00:00 10.8 5 Sudoeste 15 Sur 0 1003.2 2.4 95
2019-11-28 23:00:00 11.9 6 Sur 11 Sur 0 1002.6 3 92
2019-11-28 22:00:00 12.7 8 Oeste 13 Oeste 0 1001.9 3.8 89
2019-11-28 21:00:00 13.3 3 Noroeste 30 Noroeste 0 1000.8 4.2 88
2019-11-28 20:00:00 14 15 Noroeste 33 Oeste 0 999.6 4.1 91
2019-11-28 19:00:00 15.1 15 Oeste 28 Oeste 0 998.1 2.5 88
2019-11-28 18:00:00 15.1 15 Oeste 30 Oeste 0 996.6 0.3 92
2019-11-28 17:00:00 13.4 10 Sur 32 Sudeste 0.6 995.5 -2 97
2019-11-28 16:00:00 13.1 4 Noroeste 24 Sudeste 3.3 995.6 -3.3 95
2019-11-28 15:00:00 12.5 14 Sudeste 24 Este 3.3 996.3 -3.4 95
2019-11-28 14:00:00 12.2 8 Sudeste 17 Este 3.1 997.5 -1.9 95
2019-11-28 13:00:00 12.4 5 Sudeste 17 Sur 1.1 998.9 -0.8 90
2019-11-28 12:00:00 12.3 7 Sur 21 Sudeste 0 999.7 0.4 85
2019-11-28 11:00:00 11.6 6 Sur 22 Sudoeste 0 999.4 -0.1 87
2019-11-28 10:00:00 9.5 8 Sur 15 Sur 0 999.7 0.7 94
2019-11-28 09:00:00 9.8 10 Sur 15 Sur 0 999.3 0.6 93
2019-11-28 08:00:00 9.2 7 Sur 15 Sur 0 999.5 1.2 95
2019-11-28 07:00:00 10.3 5 Sur 13 Sur 0 999 0.3 91
2019-11-28 06:00:00 10.4 6 Sudoeste 11 Sudoeste 0 998.7 0.3 90
2019-11-28 05:00:00 10.3 9 Sur 13 Sudoeste 0 998.3 -0.4 92
2019-11-28 04:00:00 11 7 Sur 13 Sur 0 998.7 -0.1 89
2019-11-28 03:00:00 11.6 9 Sudoeste 18 Sur 0 998.4 -0.3 85
2019-11-28 02:00:00 11.8 10 Sudoeste 18 Sudoeste 0 998.7 0.8 85
2019-11-28 01:00:00 12.8 12 Sudoeste 22 Oeste 0 998.8 1.1 81
2019-11-28 00:00:00 12.8 13 Oeste 32 Oeste 0 998.7 1.3 81
2019-11-27 23:00:00 13.1 17 Oeste 39 Oeste 0 997.9 0.9 81
2019-11-27 22:00:00 13.4 22 Oeste 33 Oeste 0 997.7 0.7 80
2019-11-27 21:00:00 12.8 11 Sudoeste 21 Sudoeste 0 997.4 0.6 82
2019-11-27 20:00:00 12.8 16 Sudoeste 28 Oeste 0 997 0.8 79
2019-11-27 19:00:00 13 17 Sudoeste 39 Oeste 0 997 1.2 79
2019-11-27 18:00:00 13.2 21 Oeste 35 Oeste 0 996.8 0.9 79
2019-11-27 17:00:00 12.8 17 Oeste 35 Oeste 0.1 996.2 0 86
2019-11-27 16:00:00 14.3 21 Oeste 37 Oeste 0 995.8 -0.7 74
2019-11-27 15:00:00 13.7 17 Oeste 41 Sudoeste 0.1 995.9 -0.8 78
2019-11-27 14:00:00 13.1 15 Sudoeste 32 Sudoeste 0.5 996.2 -0.5 84
2019-11-27 06:00:00 11.4 14 Sudoeste 30 Sudoeste 0.4 994.7 0.7 87
2019-11-27 05:00:00 12.4 14 Sudoeste 32 Sudoeste 0 994.7 1.2 79
2019-11-27 04:00:00 12.5 17 Sudoeste 42 Oeste 0 994.7 1.5 75
2019-11-27 03:00:00 12.7 20 Oeste 45 Oeste 0 994 1.8 77
2019-11-27 02:00:00 12.5 21 Oeste 37 Oeste 0 993.5 1.6 79
2019-11-27 01:00:00 11.9 14 Oeste 42 Oeste 1.2 993.2 2.2 90
2019-11-27 00:00:00 12.5 24 Oeste 50 Oeste 0.2 992.2 1.4 83
2019-11-26 23:00:00 11.9 17 Oeste 45 Sudoeste 0.6 991.9 1.7 87
2019-11-26 22:00:00 13.3 29 Sudoeste 48 Oeste 0 991 1.6 70
2019-11-26 21:00:00 13 25 Sudoeste 50 Oeste 0 990.8 2.6 68
2019-11-26 20:00:00 12.8 21 Oeste 54 Oeste 0 990.2 2.4 70
2019-11-26 19:00:00 13.1 30 Oeste 59 Oeste 0 989.4 2.4 71
2019-11-26 18:00:00 13.1 31 Oeste 65 Oeste 0 988.2 1.3 70
2019-11-26 17:00:00 12.7 36 Oeste 72 Oeste 2.8 987.8 1 77
2019-11-26 16:00:00 15.3 30 Oeste 71 Sudoeste 0.7 987 -1.3 73
2019-11-26 15:00:00 14.3 46 Sudoeste 74 Sudoeste 2.3 986.9 -3.1 83
2019-11-26 14:00:00 16.4 43 Sudoeste 80 Sur 0.1 986.8 -4.7 76
2019-11-26 13:00:00 16.8 43 Sudoeste 71 Sudoeste 0 988.3 -3.8 70
2019-11-26 12:00:00 16 32 Sudoeste 48 Sur 0 990 -2.4 76
2019-11-26 11:00:00 14.7 18 Sudoeste 46 Sudoeste 0.2 991.5 -1.3 81
2019-11-26 10:00:00 15.7 29 Sudoeste 50 Sudoeste 0 992.1 -0.7 76
2019-11-26 09:00:00 15.3 26 Sudoeste 46 Sudoeste 0 992.4 -1.1 77
2019-11-26 08:00:00 15.2 17 Sur 32 Sudoeste 0 992.8 -0.8 77
2019-11-26 07:00:00 15.1 20 Sur 30 Sur 0 992.8 -1.4 78
2019-11-26 06:00:00 15.7 12 Sur 24 Sudoeste 0 993.5 -0.2 76
2019-11-26 05:00:00 15.9 16 Sudoeste 30 Sudoeste 0 993.6 -0.3 76
2019-11-26 04:00:00 16.7 18 Sudoeste 42 Sudoeste 0 994.2 -0.4 78
2019-11-26 03:00:00 16.6 21 Sudoeste 39 Sudoeste 0 993.7 -1.6 85
2019-11-26 02:00:00 15.8 21 Sur 41 Sur 0 993.9 -1.8 90
2019-11-26 01:00:00 15.2 23 Sur 41 Sur 0 994.6 -2.1 88
2019-11-26 00:00:00 14.9 28 Sur 48 Sur 0 995.3 -1.8 85
2019-11-25 23:00:00 15 23 Sur 55 Sur 0 995.7 -1.7 80
2019-11-25 22:00:00 15 22 Sur 55 Sur 0 996.7 -1.5 78
2019-11-25 21:00:00 15 35 Sudoeste 61 Sur 0 997.1 -1.9 77
2019-11-25 20:00:00 14.6 27 Sur 54 Sur 0 997.4 -2 77
2019-11-25 19:00:00 14.4 22 Sur 54 Sur 0 998.2 -1.2 77
2019-11-25 18:00:00 14.1 15 Sur 33 Sur 0 999 -0.8 76
2019-11-25 17:00:00 14.7 19 Sur 35 Sudoeste 0 999.4 -0.5 75
2019-11-25 16:00:00 14.6 17 Sur 30 Sur 0 999.4 -1 76
2019-11-25 15:00:00 14 12 Oeste 24 Oeste 0 999.8 -1 80
2019-11-25 14:00:00 15.1 3 Sur 21 Sudoeste 0 999.9 -0.5 73
2019-11-25 13:00:00 14.8 13 Sudoeste 28 Sudoeste 0 1000.4 0.7 73
2019-11-25 12:00:00 14.4 8 Sudoeste 24 Sudoeste 0 1000.8 1.8 74
2019-11-25 11:00:00 14.3 12 Sudoeste 24 Sur 0 1000.4 2 76
2019-11-25 10:00:00 12.5 11 Sudoeste 28 Oeste 0 999.7 1.8 87
2019-11-25 09:00:00 12.8 10 Oeste 26 Sudoeste 0 999 1.6 82
2019-11-25 08:00:00 12.7 13 Sudoeste 24 Oeste 0 998.4 1.3 86
2019-11-25 07:00:00 12.9 13 Sudoeste 30 Sudoeste 0 997.9 1.4 84
2019-11-25 06:00:00 13.2 16 Sudoeste 32 Sudoeste 0 997.4 1.1 84
2019-11-25 05:00:00 12.7 13 Sudoeste 33 Norte 2.1 997.1 0.8 91
2019-11-25 04:00:00 13.1 12 Sudoeste 24 Sudoeste 0 996.5 0.6 82
2019-11-25 03:00:00 13 10 Sudoeste 28 Sudoeste 0 996.3 1 85
2019-11-25 02:00:00 13.6 17 Oeste 39 Sudoeste 0 996.3 2.1 86
2019-11-25 01:00:00 14.5 18 Sudoeste 41 Sudoeste 0 995.9 1.8 78
2019-11-25 00:00:00 14.6 20 Oeste 42 Oeste 0.8 995.3 0.9 86
2019-11-24 23:00:00 15.2 17 Sudoeste 33 Sudoeste 0 994.2 0.1 81
2019-11-24 22:00:00 15.4 15 Sudoeste 35 Sudoeste 0 994.1 0.3 82
2019-11-24 21:00:00 15.5 11 Sudoeste 26 Sudoeste 0 994.4 0.8 82
2019-11-24 20:00:00 15.4 14 Sudoeste 28 Oeste 0 994.1 1.4 82
2019-11-24 19:00:00 15.4 19 Sudoeste 41 Sudoeste 0 993.8 0.5 84
2019-11-24 18:00:00 13.7 13 Sur 37 Sur 1.2 993.6 -0.2 93
2019-11-24 17:00:00 14 19 Sur 52 Sur 0 992.7 -2.4 89
2019-11-24 16:00:00 14.9 29 Sur 61 Sudoeste 0 993.3 -3.5 79
2019-11-24 15:00:00 14.2 30 Sur 63 Sur 0 993.8 -4.4 80
2019-11-24 14:00:00 14.2 31 Sur 55 Sur 0 995.1 -3.3 77
2019-11-24 13:00:00 12.3 26 Sur 45 Sur 0 996.8 -2.2 83
2019-11-24 12:00:00 11.7 27 Sur 52 Sur 0 998.2 -0.8 85
2019-11-24 11:00:00 12.1 27 Sur 48 Sur 0 998.4 -1.3 81
2019-11-24 10:00:00 11.4 15 Sur 35 Sudoeste 0 999 -0.9 82
2019-11-24 09:00:00 10.2 15 Sur 26 Sur 0 999 -1.1 86
2019-11-24 08:00:00 9.5 9 Sur 17 Sur 0 999.7 -0.6 88
2019-11-24 07:00:00 9.8 16 Sur 30 Sudoeste 0 999.9 -1.3 85
2019-11-24 06:00:00 9.4 25 Sudoeste 32 Sudoeste 0 1000.1 -0.8 83
2019-11-24 05:00:00 9 15 Sudoeste 26 Sudoeste 0 1000.3 -0.5 85
2019-11-24 04:00:00 8.7 12 Sur 17 Sur 0 1001.2 0.3 85
2019-11-24 03:00:00 8.6 12 Sur 18 Sur 0 1000.9 0.3 87
2019-11-24 02:00:00 8.1 13 Sur 15 Sudoeste 0 1000.8 0.2 90
2019-11-24 01:00:00 8.6 12 Sudoeste 21 Sudoeste 0 1000.9 0.6 88
2019-11-24 00:00:00 10.4 14 Oeste 26 Oeste 0 1000.6 0.5 82
2019-11-23 23:00:00 10.9 15 Oeste 22 Oeste 0 1000.6 0.8 82
2019-11-23 22:00:00 10.7 15 Oeste 26 Oeste 0 1000.3 1.2 83
2019-11-23 21:00:00 10.6 15 Oeste 22 Oeste 0 1000.1 2.1 85
2019-11-23 20:00:00 10.5 14 Oeste 26 Oeste 1 999.8 2.4 88
2019-11-23 19:00:00 11.2 13 Oeste 26 Oeste 0 999.1 2.5 83
2019-11-23 18:00:00 11.6 14 Oeste 32 Noroeste 0 998 1.9 81
2019-11-23 17:00:00 12.3 15 Noroeste 39 Noroeste 0 997.4 1.7 78
2019-11-23 16:00:00 12.8 18 Noroeste 37 Noroeste 0 996.6 1.3 71
2019-11-23 15:00:00 12.7 17 Noroeste 50 Noroeste 0 996.1 1.2 76
2019-11-23 14:00:00 13.3 22 Noroeste 46 Noroeste 0 995.7 1.8 71
2019-11-23 13:00:00 13.4 25 Noroeste 46 Noroeste 0 995.3 2.4 66
2019-11-23 12:00:00 13 24 Noroeste 42 Noroeste 0 994.9 3.4 68
2019-11-23 11:00:00 12.4 26 Noroeste 45 Noroeste 0 993.9 3.5 71
2019-11-23 10:00:00 11.3 16 Noroeste 41 Noroeste 0.3 992.9 3.6 78
2019-11-23 09:00:00 11.2 21 Noroeste 45 Noroeste 0 991.5 3.1 78
2019-11-23 08:00:00 10.5 26 Noroeste 54 Norte 1.2 990.4 3.3 81
2019-11-23 07:00:00 10.6 19 Norte 41 Norte 0.1 989.3 3.3 82
2019-11-23 06:00:00 10.2 29 Noroeste 61 Noroeste 0.5 988.4 3.5 81
2019-11-23 05:00:00 9.8 24 Norte 59 Noroeste 0 987.1 3.4 83
2019-11-23 04:00:00 11.5 24 Noroeste 52 Noroeste 0 986 3.7 65
2019-11-23 03:00:00 11.3 35 Noroeste 58 Noroeste 0 984.9 4.3 63
2019-11-23 02:00:00 11.1 37 Noroeste 63 Noroeste 0.2 983.7 4.6 66
2019-11-23 01:00:00 11.4 34 Noroeste 93 Norte 0 982.3 5.3 69
2019-11-23 00:00:00 10 32 Noroeste 72 Noroeste 0.7 980.6 5.9 84
2019-11-22 23:00:00 9.5 41 Noroeste 89 Noroeste 3.2 979.1 5.7 95
2019-11-22 22:00:00 9.7 51 Noroeste 87 Noroeste 2 977 4.9 95
2019-11-22 21:00:00 10.4 47 Noroeste 89 Oeste 1.8 974.7 3.7 95
2019-11-22 20:00:00 10.9 45 Oeste 80 Oeste 0.5 973.4 2.9 93
2019-11-22 19:00:00 12.1 37 Oeste 68 Oeste 0.3 972.1 1.9 88
2019-11-22 18:00:00 12.3 29 Oeste 61 Oeste 0 971 0.3 86
2019-11-22 17:00:00 12.1 30 Oeste 54 Oeste 0.1 970.5 -1.3 84
2019-11-22 16:00:00 12.1 22 Sudoeste 46 Sudoeste 0.2 970.2 -2.6 82
2019-11-22 15:00:00 11.3 30 Sudoeste 58 Oeste 0.7 970.7 -2.2 83
2019-11-22 14:00:00 12.6 22 Oeste 39 Oeste 0.6 971.8 0 80
2019-11-22 13:00:00 12.1 18 Oeste 48 Noroeste 1.6 972.8 2.4 85
2019-11-22 12:00:00 14.2 23 Oeste 50 Oeste 0 972.9 2.4 79
2019-11-22 11:00:00 13.3 33 Oeste 76 Oeste 0.7 971.8 0 88
2019-11-22 10:00:00 14.9 26 Sudoeste 48 Sudoeste 0.5 970.4 -3.7 87
2019-11-22 09:00:00 11.6 18 Sudeste 35 Sur 2.7 970.5 -4.8 95
2019-11-22 08:00:00 11.9 20 Sur 42 Sur 3.4 971.8 -4.9 92
2019-11-22 07:00:00 11.6 21 Sur 55 Sur 0.3 974.1 -4.6 90
2019-11-22 06:00:00 10.7 28 Sur 48 Sur 0.3 975.3 -5.5 88
2019-11-22 05:00:00 10.2 29 Sur 48 Sur 0.1 976.7 -6.5 86
2019-11-22 04:00:00 9.9 20 Sur 42 Sur 0 978.7 -6.9 86
2019-11-22 03:00:00 10.1 27 Sur 48 Sur 1.1 980.8 -6.3 86
2019-11-22 02:00:00 10.5 13 Sudeste 30 Sur 0 983.2 -4.9 81
2019-11-22 01:00:00 10.2 15 Sudeste 32 Sudeste 0.1 985.6 -3.5 85
2019-11-22 00:00:00 10.3 17 Sur 41 Sudoeste 0 987.1 -2.6 85
2019-11-21 23:00:00 10.7 18 Sur 30 Sur 0 988.1 -2.6 81
2019-11-21 22:00:00 10.4 12 Sudeste 28 Sur 0 989.1 -2 81
2019-11-21 21:00:00 10.2 15 Sur 26 Sur 0 989.7 -1.2 82
2019-11-21 20:00:00 10.4 18 Sur 30 Sudoeste 0 990.7 -0.8 83
2019-11-21 19:00:00 10 12 Sur 33 Sudeste 0 991.1 -0.3 82
2019-11-21 18:00:00 10.6 13 Sur 22 Sudoeste 0 990.9 -0.6 76
2019-11-21 17:00:00 11.6 12 Oeste 35 Oeste 0.1 991.5 -0.3 80
2019-11-21 16:00:00 12.9 17 Oeste 32 Oeste 0.1 991.4 -0.7 65
2019-11-21 15:00:00 13.5 17 Oeste 35 Oeste 0 991.5 -0.9 64
2019-11-21 14:00:00 12.3 19 Sudoeste 33 Sudoeste 0 991.8 -0.6 69
2019-11-21 13:00:00 13.5 18 Oeste 33 Oeste 0 992.1 -0.2 65
2019-11-21 12:00:00 12.4 20 Sur 32 Sur 0 992.4 0.2 74
2019-11-21 11:00:00 10.8 17 Sur 24 Sur 0 992.4 0.5 80
2019-11-21 10:00:00 8.5 12 Sur 32 Sur 0.1 992.3 1 90
2019-11-21 09:00:00 8.2 13 Oeste 24 Noroeste 3.5 992.2 1 91
2019-11-21 08:00:00 -- -- -- -- -- -- -- -- --
2019-11-21 07:00:00 -- -- -- -- -- -- -- -- --
2019-11-21 06:00:00 -- -- -- -- -- -- -- -- --
2019-11-21 05:00:00 -- -- -- -- -- -- -- -- --
2019-11-21 04:00:00 -- -- -- -- -- -- -- -- --
2019-11-21 03:00:00 -- -- -- -- -- -- -- -- --
2019-11-21 02:00:00 -- -- -- -- -- -- -- -- --
2019-11-21 01:00:00 -- -- -- -- -- -- -- -- --
2019-11-21 00:00:00 -- -- -- -- -- -- -- -- --
2019-11-20 23:00:00 -- -- -- -- -- -- -- -- --
2019-11-20 22:00:00 -- -- -- -- -- -- -- -- --
2019-11-20 21:00:00 -- -- -- -- -- -- -- -- --
2019-11-20 20:00:00 -- -- -- -- -- -- -- -- --
2019-11-20 19:00:00 9.1 16 Sur 35 Sudoeste 0.1 991.1 0.2 88
2019-11-20 18:00:00 9.8 23 Sudoeste 33 Sudoeste 0 990.9 -0.2 79
2019-11-20 17:00:00 10.6 22 Sur 35 Sur 0 990.8 -0.8 77
2019-11-20 16:00:00 11.1 24 Sur 39 Sur 0 990.9 -1.3 75
2019-11-20 15:00:00 10.7 20 Sur 41 Sudoeste 0 991.1 -2 77
2019-11-20 14:00:00 11 27 Sur 42 Sur 0 991.6 -2 77
2019-11-20 13:00:00 10.3 28 Sur 42 Sur 0 992.2 -1.7 78
2019-11-20 12:00:00 9.2 18 Sur 35 Sur 0.1 993.1 -0.6 83
2019-11-20 11:00:00 9.1 12 Sur 24 Oeste 0.1 993.6 0.1 84
2019-11-20 10:00:00 8.8 14 Sudoeste 26 Sur 0 993.9 0 81
2019-11-20 09:00:00 9.1 14 Sur 41 Sur 0 993.7 -0.9 80
2019-11-20 08:00:00 7.8 14 Sudeste 26 Sudeste 0 993.5 -1.3 87
2019-11-20 07:00:00 8.1 16 Sudeste 26 Sur 0 993.9 -1.7 86
2019-11-20 06:00:00 7.8 13 Sur 17 Sur 0 994.6 -1.4 87
2019-11-20 05:00:00 7.9 14 Sur 22 Sur 0 994.8 -2.2 87
2019-11-20 04:00:00 7.5 12 Sur 15 Sur 0 995.6 -2.1 89
2019-11-20 03:00:00 7.2 11 Sur 17 Sur 0 996 -2.1 92
2019-11-20 02:00:00 7.5 10 Sur 17 Sur 0 997 -1.6 93
2019-11-20 01:00:00 7.9 12 Sur 22 Sudoeste 0 997.7 -1.1 92
2019-11-20 00:00:00 6.6 13 Sur 17 Sur 0 998.1 -1 94
2019-11-19 23:00:00 6.8 11 Sur 17 Sudeste 0 998.6 -1 92
2019-11-19 22:00:00 8.4 9 Sur 13 Sur 0 998.8 -0.9 90
2019-11-19 21:00:00 9.7 6 Sur 13 Sur 0 999.1 -0.4 87
2019-11-19 20:00:00 10.2 8 Sur 18 Sur 0 999.6 0.2 87
2019-11-19 19:00:00 10.4 14 Sur 32 Sur 0 999.7 -0.3 88
2019-11-19 18:00:00 11 15 Sudoeste 26 Sudoeste 0 999.5 -1 83
2019-11-19 17:00:00 11.2 18 Sudoeste 26 Sur 0 999.4 -1 82
2019-11-19 16:00:00 11.1 17 Sudoeste 28 Sur 0 1000 -0.9 81
2019-11-19 15:00:00 11.1 20 Sudoeste 37 Sudoeste 0 1000.5 -1 80
2019-11-19 14:00:00 11 27 Sur 39 Sur 0.2 1000.4 -- 81
2019-11-19 13:00:00 9.9 22 Sur 45 Sur 0.2 1000.9 -- 84
2019-11-19 12:00:00 -- 28 Sur 46 Sur 0.2 1001.5 -- --
2019-11-19 11:00:00 -- -- -- 37 Sudeste 0.3 -- -- --
2019-11-19 10:00:00 -- 24 Sudeste 39 Sudeste 0 -- -- --
2019-11-19 09:00:00 -- 17 Sur 28 Sur 0.2 -- -- --
2019-11-19 08:00:00 -- 14 Sur 39 Sur 0 -- -- --
2019-11-19 07:00:00 -- 21 Sur 30 Sur 0 -- -- --
2019-11-19 06:00:00 -- 15 Sudeste 22 Sudeste 0.1 -- -- --
2019-11-19 05:00:00 -- 17 Sur 24 Sur 0 -- -- --
2019-11-19 04:00:00 -- 14 Sur 18 Sur 0 -- -- --
2019-11-19 03:00:00 -- 13 Sur 18 Sur 0 -- -- --
2019-11-19 02:00:00 -- 14 Sur 18 Sur 0 -- -- --
2019-11-19 01:00:00 -- 13 Sur 17 Sur 0 -- -- --
2019-11-19 00:00:00 -- 10 Sur 13 Sur 0 -- -- --
2019-11-18 23:00:00 -- 11 Sur 15 Sur 0 -- -- --
2019-11-18 22:00:00 -- 8 Sur 13 Sur 0 -- -- --
2019-11-18 21:00:00 -- 8 Sur 11 Sur 0 -- -- --
2019-11-18 20:00:00 -- 8 Sur 11 Sudoeste 0 -- -- --
2019-11-18 19:00:00 -- 9 Sur 11 Sur 0 1006.8 -- --
2019-11-18 18:00:00 -- 4 Noroeste 8 Noroeste 0 1007 0 --
2019-11-18 17:00:00 -- 2 Noroeste 8 Oeste 0 -- -- --
2019-11-18 16:00:00 -- 0 Calma 15 Norte 0 -- -- --
2019-11-18 15:00:00 -- 7 Norte 13 Noroeste 0 1007 -- --
2019-11-18 14:00:00 -- 4 Norte 11 Norte 0 -- -- --
2019-11-18 13:00:00 -- 5 Sudeste 15 Sudoeste 0 -- -- --
2019-11-18 12:00:00 -- 7 Sudoeste 15 Sur 0 -- -- --
2019-11-18 11:00:00 -- 6 Sur 13 Sur 0.1 -- -- --
2019-11-18 10:00:00 -- 4 Sur 11 Sudoeste 0 -- -- --
2019-11-18 09:00:00 -- 8 Sudoeste 13 Sur 0 -- -- --
2019-11-18 08:00:00 -- 7 Sur 13 Sudoeste 0 -- -- --
2019-11-18 07:00:00 -- 6 Sudoeste 13 Sur 0.2 -- -- --
2019-11-18 06:00:00 -- 8 Sudoeste 9 Sudoeste 0.3 -- -- --
2019-11-18 05:00:00 -- -- -- 11 Oeste 2.2 -- -- --
2019-11-18 04:00:00 -- 0 Calma 5 Sur 0 -- -- --
2019-11-18 03:00:00 -- 4 Noroeste 22 Nordeste 0.2 -- -- --
2019-11-18 02:00:00 -- 3 Oeste 9 Norte 0 -- -- --
2019-11-18 01:00:00 -- 4 Norte 21 Norte 0.8 -- -- --
2019-11-18 00:00:00 -- 4 Noroeste 8 Noroeste 0 -- -- --
2019-11-17 23:00:00 -- 6 Noroeste 18 Norte 0.1 -- -- --
2019-11-17 22:00:00 -- 12 Nordeste 26 Nordeste 0 -- -- --
2019-11-17 21:00:00 -- 7 Nordeste 24 Nordeste 0 -- -- --
2019-11-17 20:00:00 -- 14 Norte 35 Norte 0 -- -- --
2019-11-17 19:00:00 -- 23 Noroeste 50 Norte 0.1 -- -- --
2019-11-17 18:00:00 -- 23 Noroeste 48 Noroeste 0.2 -- -- --
2019-11-17 17:00:00 -- 15 Noroeste 37 Noroeste 0.1 -- -- --
2019-11-17 16:00:00 24 20 Noroeste 41 Noroeste 0 1000.9 -1 --
2019-11-17 15:00:00 10.3 20 Noroeste -- -- -- 1001.3 -0.9 --
2019-11-17 14:00:00 13 21 Noroeste 41 Norte 0 -- -- --
2019-11-17 13:00:00 18.8 21 Norte 42 Norte 0 1001.9 0.5 --
2019-11-17 12:00:00 13.2 28 Noroeste 46 Noroeste 0 1002.2 -- --
2019-11-17 11:00:00 10.7 12 Noroeste 45 Noroeste 0.2 1002 -- --
2019-11-17 10:00:00 10.9 8 Oeste 24 Oeste 0.1 1001.4 -- 9
2019-11-17 09:00:00 10.8 16 Noroeste 30 Noroeste 0.1 -- -- --
2019-11-17 08:00:00 10.4 11 Oeste 35 Norte 1.2 -- -- --
2019-11-17 07:00:00 10.9 -- -- 35 Noroeste 2.1 -- -- --
2019-11-17 06:00:00 11.8 -- -- 52 Oeste 1.5 1000.5 0.3 10
2019-11-17 05:00:00 11.4 -- -- 32 Sudoeste 1.1 1000.2 -0.6 10
2019-11-17 04:00:00 11 28 Sudoeste 39 Sudoeste 0 999.9 -1.3 11
2019-11-17 03:00:00 11 26 Sudoeste 39 Sudoeste 0 1000.2 -1.5 11
2019-11-17 02:00:00 11.2 22 Sur 41 Sur 0 1000.8 -- 14
2019-11-17 01:00:00 13.8 19 Sur 37 Sur 0 1001.2 -- 20
2019-11-17 00:00:00 10.6 22 Sur 35 Sur 0 1001.7 -- 21
2019-11-16 23:00:00 9.8 6 Sur 30 Sudoeste 0 -- -- --
2019-11-16 22:00:00 9.9 14 Sudoeste -- -- -- -- -- --
2019-11-16 21:00:00 9.5 16 Sur 28 Sudoeste 0 -- -- --
2019-11-16 20:00:00 9.8 21 Sudoeste 35 Sudoeste 0 -- -- --
2019-11-16 19:00:00 9.6 18 Sudoeste 30 Sudoeste 0 -- -- 8
2019-11-16 18:00:00 9.3 11 Sur 28 Sudoeste 0 1003.9 -- 12
2019-11-16 17:00:00 10.5 9 Sudoeste 18 Sudoeste 0 -- -- --
2019-11-16 16:00:00 10.7 9 Sudoeste 18 Sudoeste 0 -- -- --
2019-11-16 15:00:00 10.9 11 Oeste 22 Sudoeste 0 -- -- --
2019-11-16 14:00:00 9.2 7 Oeste 28 Oeste 0.6 -- -- --
2019-11-16 13:00:00 10.8 14 Oeste 22 Oeste 0 -- -- --
2019-11-16 12:00:00 9.9 13 Oeste 18 Oeste 0 -- -- --
2019-11-16 11:00:00 9.3 15 Oeste 32 Oeste 0 -- -- --
2019-11-16 10:00:00 6.8 8 Sur 15 Oeste 0 -- -- --
2019-11-16 09:00:00 6.6 7 Oeste 15 Sur 0 -- -- --
2019-11-16 08:00:00 6.2 10 Sur 18 Sur 1 -- -- --
2019-11-16 07:00:00 6 9 Sur 13 Sur 0 -- -- --
2019-11-16 06:00:00 6.1 9 Sur 13 Sudeste 0 -- -- --
2019-11-16 05:00:00 6.4 9 Sur 13 Sur 0 -- -- --
2019-11-16 04:00:00 7.3 7 Sudoeste 17 Noroeste 0.5 -- -- --
2019-11-16 03:00:00 8.2 7 Este 35 Norte 0.2 -- -- --
2019-11-16 02:00:00 8.5 13 Norte 45 Noroeste 0.1 -- -- --
2019-11-16 01:00:00 9.2 22 Norte 46 Norte 0.3 -- -- --
2019-11-16 00:00:00 9.3 21 Norte 41 Norte 0 -- -- --
2019-11-15 23:00:00 7.3 16 Noroeste 26 Noroeste 0.3 -- -- --
2019-11-15 22:00:00 7.9 25 Norte 46 Nordeste 0.2 -- -- --
2019-11-15 21:00:00 8.2 22 Nordeste 41 Nordeste 0.9 -- -- --
2019-11-15 20:00:00 6.6 12 Nordeste 55 Nordeste 1.5 -- -- --
2019-11-15 19:00:00 6.8 -- -- 45 Norte 1.2 -- -- --
2019-11-15 18:00:00 7.3 22 Norte 67 Norte 2.1 999.3 0.7 86
2019-11-15 17:00:00 9.7 17 Norte 59 Norte 0 998.9 -0.2 74
2019-11-15 16:00:00 10.1 28 Norte 54 Norte 0 998.4 -0.1 64
2019-11-15 15:00:00 6.9 8 Noroeste 46 Norte 1.8 998.6 -0.6 95
2019-11-15 14:00:00 8 29 Norte 61 Norte 0.5 999.1 -0.2 79
2019-11-15 13:00:00 10.4 33 Norte 54 Noroeste 0 998.5 -0.6 65
2019-11-15 12:00:00 9.4 33 Norte 58 Norte 1.3 999.2 0.4 65
2019-11-15 11:00:00 7.5 32 Norte 54 Norte 0 999.3 0.9 67
2019-11-15 10:00:00 8.9 24 Norte 59 Norte 0 999.1 1.3 64
2019-11-15 09:00:00 8 29 Norte 54 Norte 1.1 998.8 1.3 69
2019-11-15 08:00:00 9.1 30 Norte 55 Norte 0.3 998.4 1.2 61
2019-11-15 07:00:00 9.1 33 Norte 63 Norte 0 997.8 0.5 64
2019-11-15 06:00:00 9.5 39 Norte 58 Norte 0.1 997.5 0.2 57
2019-11-15 05:00:00 9.9 35 Norte 61 Norte 0 997.2 0.1 52
2019-11-15 04:00:00 9 27 Norte 65 Norte 1.7 997.3 0.3 63
2019-11-15 03:00:00 9.1 28 Norte 74 Norte 0 997.3 0.7 62
2019-11-15 02:00:00 8.9 31 Norte 68 Norte 0 997.1 0.5 63
2019-11-15 01:00:00 9.5 23 Norte 65 Norte 0.5 997 0.7 68
2019-11-15 00:00:00 9.8 26 Norte 58 Norte 0 996.6 0.6 61
2019-11-14 23:00:00 10.3 36 Norte 61 Norte 0 996.6 1 54
2019-11-14 22:00:00 10 31 Norte 76 Noroeste 0 996.3 1.2 61
2019-11-14 21:00:00 10.2 36 Norte 78 Noroeste 0.4 996 1.9 60
2019-11-14 20:00:00 10.4 34 Norte 68 Norte 0.1 995.6 3 61
2019-11-14 19:00:00 11.2 46 Norte 76 Noroeste 0 995.1 2.5 55
2019-11-14 18:00:00 11.3 45 Noroeste 80 Noroeste 0 994.1 2.7 61
2019-11-14 17:00:00 11.1 45 Norte 74 Noroeste 0.5 992.6 2.7 69
2019-11-14 16:00:00 7.8 37 Norte 87 Norte 0.5 992.6 3.8 100
2019-11-14 15:00:00 11.5 46 Norte 89 Norte 0 991.4 2.9 68
2019-11-14 14:00:00 10 52 Noroeste 104 Norte 0 989.9 1.4 77
2019-11-14 13:00:00 11.7 58 Norte 104 Norte 0.4 988.8 -0.4 70
2019-11-14 12:00:00 10.6 48 Noroeste 76 Norte 0.1 988.5 -1.1 80
2019-11-14 11:00:00 9.6 36 Noroeste 84 Noroeste 1 988.5 -2.6 78
2019-11-14 10:00:00 10.4 36 Noroeste 68 Noroeste 0.5 989.2 -3.7 62
2019-11-14 09:00:00 6.6 15 Sudoeste 48 Oeste 4.8 989.6 -4.3 91
2019-11-14 08:00:00 7.1 23 Sudoeste 41 Oeste 0 991.1 -3.1 78
2019-11-14 07:00:00 8.1 16 Oeste 58 Norte 0 992.9 -2.9 73
2019-11-14 06:00:00 8.8 32 Noroeste 58 Noroeste 0.4 993.9 -2.3 71
2019-11-14 05:00:00 7.5 18 Oeste 67 Noroeste 0.5 994.2 -2.7 76
2019-11-14 04:00:00 9.1 38 Noroeste 74 Norte 0 995.8 -1.6 63
2019-11-14 03:00:00 9 13 Noroeste 67 Norte 0 996.2 -1.5 72
2019-11-14 02:00:00 9.7 24 Noroeste 52 Noroeste 0 996.9 -0.9 69
2019-11-14 01:00:00 9.2 37 Noroeste 72 Norte 0.5 997.4 -0.7 79
2019-11-14 00:00:00 9 33 Noroeste 67 Noroeste 0.2 997.7 -1 85
2019-11-13 23:00:00 10.3 23 Noroeste 61 Noroeste 0.4 997.8 -1.2 87
2019-11-13 22:00:00 10.5 23 Noroeste 45 Noroeste 3.4 998.1 -1.8 100
2019-11-13 21:00:00 10.8 30 Noroeste 61 Noroeste 2.8 998.7 -2.3 93
2019-11-13 20:00:00 12 20 Sudoeste 37 Oeste 0.1 999 -2.8 80
2019-11-13 19:00:00 11.7 23 Oeste 41 Sudoeste 0 999.9 -2.2 83
2019-11-13 18:00:00 11.6 21 Oeste 41 Oeste 0.1 1001 -1.5 84
2019-11-13 17:00:00 12.8 14 Oeste 30 Sudoeste 0 1001.8 -1.5 73
2019-11-13 16:00:00 12.9 14 Oeste 28 Oeste 0 1002.1 -2 75
2019-11-13 15:00:00 13.1 14 Noroeste 24 Noroeste 0 1002.5 -2.3 72
2019-11-13 14:00:00 13.2 9 Noroeste 24 Noroeste 0 1003.3 -0.8 76
2019-11-13 13:00:00 12 10 Noroeste 28 Noroeste 0 1004.1 0.6 80
2019-11-13 12:00:00 12.3 6 Norte 24 Norte 0 1004.8 1.6 82
2019-11-13 11:00:00 11.4 5 Norte 21 Noroeste 0.1 1004.1 1.9 90
2019-11-13 10:00:00 11.8 0 Calma 9 Norte 0 1003.5 2.2 87
2019-11-13 09:00:00 11.3 6 Norte 11 Norte 0 1003.2 3.2 92
2019-11-13 08:00:00 11.3 6 Norte 17 Nordeste 0 1002.2 3.3 92
2019-11-13 07:00:00 11.4 9 Norte 21 Nordeste 0 1001.3 3 94
2019-11-13 06:00:00 11.7 10 Norte 28 Nordeste 0 1000 2.9 94
2019-11-13 05:00:00 12.1 9 Norte 22 Norte 0 998.9 2.7 95
2019-11-13 04:00:00 12.2 12 Norte 30 Norte 0 998.3 2.9 97
2019-11-13 03:00:00 12.4 10 Norte 28 Norte 0 997.1 2.5 100
2019-11-13 02:00:00 12.7 14 Norte 26 Norte 0.1 996.2 1.9 100
2019-11-13 01:00:00 12.8 11 Norte 33 Norte 0.7 995.4 1.3 100
2019-11-13 00:00:00 13.7 17 Norte 48 Oeste 1.2 994.6 0 100
2019-11-12 23:00:00 15.1 25 Noroeste 46 Noroeste 4.1 994.3 -0.8 100
2019-11-12 22:00:00 15.3 28 Oeste 50 Oeste 3.2 994.1 -1.4 100
2019-11-12 21:00:00 15.3 26 Noroeste 46 Noroeste 0.5 994.6 -1 100
2019-11-12 20:00:00 15.2 27 Oeste 58 Oeste 0.3 995.1 -1.2 100
2019-11-12 19:00:00 15.2 27 Oeste 61 Oeste 1.4 995.5 -1.6 96
2019-11-12 18:00:00 15 24 Oeste 50 Oeste 3.9 995.6 -2.3 99
2019-11-12 17:00:00 14.9 26 Oeste 46 Oeste 4.9 996.3 -3.3 100
2019-11-12 16:00:00 12.9 16 Sudoeste 32 Sudoeste 4.6 997.1 -4.2 99
2019-11-12 15:00:00 12.5 23 Sudoeste 39 Sudoeste 1 997.9 -5 93
2019-11-12 14:00:00 12.3 27 Sur 46 Sudoeste 0.1 999.6 -4.2 88
2019-11-12 13:00:00 12.1 31 Sudoeste 46 Sur 0 1001.3 -3.9 87
2019-11-12 12:00:00 11.4 27 Sur 41 Sudoeste 0.3 1002.9 -2.7 89
2019-11-12 11:00:00 10.5 22 Sur 32 Sudoeste 0.4 1003.8 -2 92
2019-11-12 10:00:00 9.9 13 Sur 21 Sur 0.2 1005.2 -1.5 94
2019-11-12 09:00:00 9.4 10 Sudoeste 21 Sur 0 1005.6 -1.3 100
2019-11-12 08:00:00 9.4 13 Sur 21 Sudoeste 0.2 1005.8 -1.2 98
2019-11-12 07:00:00 9.8 10 Oeste 28 Oeste 0.5 1006.7 -1.1 93
2019-11-12 06:00:00 10.5 17 Oeste 28 Oeste 0 1006.9 -1.3 84
2019-11-12 05:00:00 10.2 12 Sudoeste 21 Sudoeste 0.3 1007 -1.7 86
2019-11-12 04:00:00 10.6 16 Oeste 28 Oeste 0 1007.8 -1.7 82
2019-11-12 03:00:00 10.8 14 Oeste 22 Oeste 0 1008.2 -1.8 76
2019-11-12 02:00:00 8.7 10 Sur 17 Sur 0 1008.7 -1.5 93
2019-11-12 01:00:00 8.2 5 Sudoeste 22 Sur 0 1009.5 -1 100
2019-11-12 00:00:00 8.4 7 Sur 13 Sur 0 1010 -0.2 98
2019-11-11 23:00:00 8.4 9 Sur 24 Sudeste 0 1010.2 0.1 94
2019-11-11 22:00:00 9.1 5 Sudeste 9 Noroeste 0 1010.5 0.4 90
2019-11-11 21:00:00 10.5 5 Noroeste 11 Noroeste 0 1010.2 0.4 82
2019-11-11 20:00:00 11 0 Calma 9 Norte 0 1010.1 0.5 75
2019-11-11 19:00:00 11.8 6 Norte 17 Norte 0 1010.1 0.7 71
2019-11-11 18:00:00 12.5 9 Norte 17 Norte 0 1009.8 0.2 65
2019-11-11 17:00:00 12.9 13 Norte 26 Norte 0 1009.6 -0.3 62
2019-11-11 16:00:00 13.4 13 Norte 28 Norte 0 1009.4 -0.8 60
2019-11-11 15:00:00 13.9 13 Norte 33 Norte 0 1009.6 -0.5 64
2019-11-11 14:00:00 13.9 13 Norte 24 Norte 0 1009.9 0.4 70
2019-11-11 13:00:00 13.2 11 Norte 32 Norte 0 1010.2 1.1 67
2019-11-11 12:00:00 13.3 14 Norte 30 Norte 0 1010.1 1.8 63
2019-11-11 11:00:00 13 19 Norte 37 Norte 0 1009.5 2.4 74
2019-11-11 10:00:00 13 21 Norte 42 Norte 0 1009.1 3.1 73
2019-11-11 09:00:00 13 20 Norte 42 Norte 0 1008.3 2.8 87
2019-11-11 08:00:00 12 23 Norte 52 Norte 0 1007.1 1.7 100
2019-11-11 07:00:00 13.5 23 Norte 46 Norte 0.1 1006 0.1 100
2019-11-11 06:00:00 14.2 26 Norte 42 Norte 0 1005.5 -1 100
2019-11-11 05:00:00 14.3 26 Noroeste 41 Noroeste 0.4 1005.4 -0.9 100
2019-11-11 04:00:00 10.9 8 Sur 13 Sur 1 1005.9 -0.7 100
2019-11-11 03:00:00 10.4 8 Sudeste 15 Sur 0.7 1006.5 -0.5 100
2019-11-11 02:00:00 10.1 13 Sudeste 18 Sur 0 1006.3 -1.4 100
2019-11-11 01:00:00 10 13 Sur 18 Sudeste 0 1006.6 -1.7 100
2019-11-11 00:00:00 9.4 12 Sur 30 Sudeste 0.1 1007 -1.1 100
2019-11-10 23:00:00 9 18 Sur 28 Sudeste 0.2 1007.7 -0.3 100
2019-11-10 22:00:00 8.9 14 Sur 26 Sur 0.1 1008.3 0 100
2019-11-10 21:00:00 9.1 13 Sur 22 Sur 0 1008.1 -0.9 100
2019-11-10 20:00:00 9 15 Sur 24 Sudeste 0.3 1008 -1 100
2019-11-10 19:00:00 9 11 Sur 15 Sur 1.3 1008.3 -1.1 100
2019-11-10 18:00:00 9 9 Sur 13 Sur 1.3 1009 -0.8 100
2019-11-10 17:00:00 9.3 9 Sur 21 Sur 1.2 1009 -1.3 100
2019-11-10 16:00:00 9.7 6 Sudeste 13 Norte 1.6 1009.4 -1.4 100
2019-11-10 15:00:00 9.8 8 Noroeste 28 Noroeste 0.8 1009.8 -1.4 100
2019-11-10 14:00:00 9.9 13 Noroeste 24 Noroeste 0.6 1010.3 0.1 93
2019-11-10 13:00:00 9.7 13 Norte 41 Norte 1.1 1010.8 0.4 85
2019-11-10 12:00:00 9.9 23 Norte 58 Noroeste 0.8 1011.2 1.1 74
2019-11-10 11:00:00 10.7 29 Norte 55 Noroeste 0.6 1010.2 0.8 82
2019-11-10 10:00:00 10.4 24 Noroeste 46 Noroeste 0.9 1010.4 0.9 83
2019-11-10 09:00:00 11.9 22 Norte 48 Noroeste 0.2 1010.1 0.1 73
2019-11-10 08:00:00 12.1 19 Noroeste 39 Noroeste 0 1009.4 -0.6 66
2019-11-10 07:00:00 11.7 24 Norte 39 Norte 0 1009.5 -0.9 69
2019-11-10 06:00:00 10.7 20 Noroeste 63 Norte 0.3 1010 -0.7 75
2019-11-10 05:00:00 11.3 24 Noroeste 42 Noroeste 0.1 1010 -0.6 64
2019-11-10 04:00:00 10.6 30 Noroeste 45 Noroeste 0.1 1010.4 -0.4 77
2019-11-10 03:00:00 9.6 26 Noroeste 50 Noroeste 0.5 1010.7 0 82
2019-11-10 02:00:00 12 21 Norte 42 Norte 0 1010.6 0 60
2019-11-10 01:00:00 12 20 Noroeste 37 Noroeste 0 1010.8 0.4 60
2019-11-10 00:00:00 11.3 20 Norte 37 Norte 0 1010.7 0.1 68